createdAt,value
2023-02-26T00:01:33.091Z,100752.25
2023-02-26T00:04:03.981Z,100752.19
2023-02-26T00:06:34.974Z,100754.38
2023-02-26T00:09:04.039Z,100755.31
2023-02-26T00:11:33.049Z,100755.69
2023-02-26T00:14:00.766Z,100768.91
2023-02-26T00:16:34.853Z,100767.28
2023-02-26T00:19:05.916Z,100781.94
2023-02-26T00:21:34.941Z,100782.13
2023-02-26T00:24:02.387Z,100774.75
2023-02-26T00:26:31.567Z,100789.03
2023-02-26T00:29:00.020Z,100789.03
2023-02-26T00:31:27.931Z,100791.69
2023-02-26T00:33:57.855Z,100787.41
2023-02-26T00:36:48.875Z,100792.69
2023-02-26T00:39:41.504Z,100814.47
2023-02-26T00:42:09.270Z,100808.53
2023-02-26T00:44:36.902Z,100805.09
2023-02-26T00:47:40.296Z,100811.63
2023-02-26T00:50:22.089Z,100816.09
2023-02-26T00:53:25.497Z,100824.84
2023-02-26T00:55:52.672Z,100829.31
2023-02-26T00:58:19.756Z,100819.38
2023-02-26T01:00:46.894Z,100824.47
2023-02-26T01:03:14.155Z,100825.56
2023-02-26T01:05:41.569Z,100835.94
2023-02-26T01:08:24.856Z,100828.06
2023-02-26T01:10:52.136Z,100835.81
2023-02-26T01:13:19.945Z,100846.66
2023-02-26T01:15:59.773Z,100845.47
2023-02-26T01:18:33.736Z,100847.75
2023-02-26T01:21:06.042Z,100851.22
2023-02-26T01:23:40.576Z,100851.03
2023-02-26T01:26:17.621Z,100851.47
2023-02-26T01:28:45.119Z,100850.03
2023-02-26T01:31:53.966Z,100864.97
2023-02-26T01:34:37.721Z,100854.56
2023-02-26T01:37:21.214Z,100845.19
2023-02-26T01:40:17.500Z,100854.38
2023-02-26T01:42:47.701Z,100855.38
2023-02-26T01:45:21.640Z,100863.75
2023-02-26T01:47:57.350Z,100865.41
2023-02-26T01:50:29.927Z,100867.66
2023-02-26T01:53:16.388Z,100867.28
2023-02-26T01:55:45.952Z,100866.47
2023-02-26T01:58:13.288Z,100871.56
2023-02-26T02:00:40.275Z,100872.19
2023-02-26T02:03:07.385Z,100882.59
2023-02-26T02:05:57.685Z,100876.94
2023-02-26T02:08:24.935Z,100881.22
2023-02-26T02:10:53.203Z,100884.66
2023-02-26T02:13:34.796Z,100890.78
2023-02-26T02:16:23.488Z,100888.13
2023-02-26T02:19:18.218Z,100898.91
2023-02-26T02:22:21.033Z,100904.56
2023-02-26T02:25:44.531Z,100911.50
2023-02-26T02:28:51.588Z,100909.22
2023-02-26T02:31:50.468Z,100910.44
2023-02-26T02:34:38.750Z,100906.13
2023-02-26T02:37:17.325Z,100914.34
2023-02-26T02:39:54.906Z,100920.44
2023-02-26T02:42:44.752Z,100925.53
2023-02-26T02:45:34.468Z,100929.00
2023-02-26T02:48:14.160Z,100939.41
2023-02-26T02:50:49.603Z,100932.66
2023-02-26T02:53:34.457Z,100935.94
2023-02-26T02:56:29.791Z,100938.94
2023-02-26T02:59:27.192Z,100952.38
2023-02-26T03:02:33.689Z,100956.66
2023-02-26T03:05:00.748Z,100942.97
2023-02-26T03:07:33.152Z,100954.00
2023-02-26T03:10:00.243Z,100950.09
2023-02-26T03:12:32.328Z,100962.94
2023-02-26T03:15:00.912Z,100962.13
2023-02-26T03:17:39.988Z,100974.16
2023-02-26T03:20:30.285Z,100975.78
2023-02-26T03:23:12.172Z,100976.81
2023-02-26T03:26:10.577Z,100980.91
2023-02-26T03:28:59.534Z,100986.81
2023-02-26T03:31:54.605Z,100990.66
2023-02-26T03:34:24.712Z,101000.59
2023-02-26T03:37:01.891Z,101003.44
2023-02-26T03:39:43.376Z,101007.91
2023-02-26T03:42:32.911Z,101011.56
2023-02-26T03:45:16.945Z,101010.94
2023-02-26T03:47:49.124Z,101024.97
2023-02-26T03:50:47.735Z,101027.78
2023-02-26T03:54:16.570Z,101030.63
2023-02-26T03:56:48.380Z,101034.09
2023-02-26T03:59:35.545Z,101043.84
2023-02-26T04:02:39.066Z,101044.66
2023-02-26T04:05:23.836Z,101046.69
2023-02-26T04:07:50.974Z,101050.13
2023-02-26T04:10:36.815Z,101055.25
2023-02-26T04:13:04.314Z,101043.66
2023-02-26T04:15:31.641Z,101052.41
2023-02-26T04:17:58.835Z,101047.94
2023-02-26T04:20:26.808Z,101053.25
2023-02-26T04:22:54.725Z,101045.50
2023-02-26T04:25:23.825Z,101056.88
2023-02-26T04:27:52.468Z,101059.53
2023-02-26T04:30:19.601Z,101071.13
2023-02-26T04:32:46.856Z,101069.28
2023-02-26T04:35:15.666Z,101076.41
2023-02-26T04:37:42.989Z,101065.81
2023-02-26T04:40:12.036Z,101088.63
2023-02-26T04:42:39.273Z,101091.44
2023-02-26T04:45:07.177Z,101097.56
2023-02-26T04:47:37.446Z,101095.94
2023-02-26T04:50:05.198Z,101093.47
2023-02-26T04:52:32.232Z,101106.50
2023-02-26T04:54:59.485Z,101102.03
2023-02-26T04:57:26.787Z,101114.25
2023-02-26T04:59:54.671Z,101114.25
2023-02-26T05:02:23.940Z,101110.16
2023-02-26T05:04:52.886Z,101112.63
2023-02-26T05:07:19.926Z,101133.59
2023-02-26T05:09:49.323Z,101124.84
2023-02-26T05:12:16.224Z,101127.75
2023-02-26T05:14:43.665Z,101132.22
2023-02-26T05:17:10.754Z,101138.16
2023-02-26T05:19:37.791Z,101143.44
2023-02-26T05:22:05.234Z,101150.56
2023-02-26T05:24:32.252Z,101149.72
2023-02-26T05:27:00.773Z,101148.91
2023-02-26T05:29:27.730Z,101161.50
2023-02-26T05:31:55.163Z,101151.75
2023-02-26T05:34:22.666Z,101157.66
2023-02-26T05:36:49.792Z,101159.03
2023-02-26T05:39:16.755Z,101167.88
2023-02-26T05:41:43.621Z,101161.13
2023-02-26T05:44:10.697Z,101157.03
2023-02-26T05:46:37.797Z,101177.09
2023-02-26T05:49:04.761Z,101185.03
2023-02-26T05:51:31.716Z,101187.31
2023-02-26T05:53:59.724Z,101189.97
2023-02-26T05:56:27.076Z,101193.25
2023-02-26T05:58:54.214Z,101203.84
2023-02-26T06:01:21.267Z,101187.88
2023-02-26T06:03:48.298Z,101201.56
2023-02-26T06:06:18.607Z,101206.94
2023-02-26T06:08:46.069Z,101216.59
2023-02-26T06:11:13.390Z,101220.06
2023-02-26T06:13:40.857Z,101220.88
2023-02-26T06:16:08.178Z,101222.34
2023-02-26T06:18:35.559Z,101213.59
2023-02-26T06:21:03.141Z,101219.88
2023-02-26T06:23:30.131Z,101232.94
2023-02-26T06:25:57.215Z,101225.47
2023-02-26T06:28:24.594Z,101211.78
2023-02-26T06:30:54.066Z,101235.03
2023-02-26T06:33:21.191Z,101242.78
2023-02-26T06:35:48.304Z,101243.34
2023-02-26T06:38:15.896Z,101246.63
2023-02-26T06:40:43.131Z,101242.34
2023-02-26T06:43:10.406Z,101252.19
2023-02-26T06:45:37.553Z,101263.59
2023-02-26T06:48:05.858Z,101263.25
2023-02-26T06:50:32.852Z,101266.16
2023-02-26T06:53:00.041Z,101280.31
2023-02-26T06:55:28.745Z,101291.19
2023-02-26T06:57:57.050Z,101292.66
2023-02-26T07:00:25.964Z,101299.88
2023-02-26T07:02:53.364Z,101302.78
2023-02-26T07:05:21.180Z,101313.34
2023-02-26T07:07:48.748Z,101304.84
2023-02-26T07:10:15.596Z,101311.69
2023-02-26T07:12:42.647Z,101314.06
2023-02-26T07:15:10.122Z,101319.00
2023-02-26T07:17:37.011Z,101324.34
2023-02-26T07:20:10.033Z,101326.28
2023-02-26T07:22:38.216Z,101339.03
2023-02-26T07:25:07.193Z,101336.22
2023-02-26T07:27:34.730Z,101337.41
2023-02-26T07:30:02.535Z,101345.44
2023-02-26T07:32:29.769Z,101350.38
2023-02-26T07:34:56.772Z,101364.09
2023-02-26T07:37:26.065Z,101349.75
2023-02-26T07:39:53.080Z,101370.34
2023-02-26T07:42:19.959Z,101359.63
2023-02-26T07:44:47.276Z,101370.38
2023-02-26T07:47:14.186Z,101368.78
2023-02-26T07:49:41.314Z,101374.72
2023-02-26T07:52:08.664Z,101361.63
2023-02-26T07:54:36.554Z,101377.97
2023-02-26T07:57:04.416Z,101363.75
2023-02-26T07:59:31.463Z,101375.59
2023-02-26T08:01:58.767Z,101379.75
2023-02-26T08:04:25.951Z,101379.44
2023-02-26T08:06:54.657Z,101379.84
2023-02-26T08:09:22.241Z,101387.53
2023-02-26T08:11:49.405Z,101389.16
2023-02-26T08:14:16.376Z,101382.78
2023-02-26T08:16:43.311Z,101391.66
2023-02-26T08:19:10.370Z,101381.94
2023-02-26T08:21:37.452Z,101403.53
2023-02-26T08:24:04.705Z,101393.69
2023-02-26T08:26:32.061Z,101414.88
2023-02-26T08:28:59.078Z,101406.53
2023-02-26T08:31:28.032Z,101415.44
2023-02-26T08:33:55.518Z,101422.63
2023-02-26T08:36:22.389Z,101427.88
2023-02-26T08:38:49.581Z,101413.97
2023-02-26T08:41:17.806Z,101420.81
2023-02-26T08:43:45.188Z,101421.41
2023-02-26T08:46:12.214Z,101418.22
2023-02-26T08:48:39.381Z,101430.41
2023-02-26T08:51:06.692Z,101420.78
2023-02-26T08:53:33.672Z,101428.44
2023-02-26T08:56:00.771Z,101428.09
2023-02-26T08:58:27.863Z,101430.91
2023-02-26T09:00:54.817Z,101442.31
2023-02-26T09:03:21.868Z,101438.97
2023-02-26T09:05:49.193Z,101442.13
2023-02-26T09:08:16.237Z,101429.00
2023-02-26T09:10:43.168Z,101451.53
2023-02-26T09:13:10.245Z,101446.78
2023-02-26T09:15:37.148Z,101454.53
2023-02-26T09:18:04.587Z,101447.09
2023-02-26T09:20:31.962Z,101460.97
2023-02-26T09:22:59.129Z,101461.72
2023-02-26T09:25:26.079Z,101453.00
2023-02-26T09:27:53.204Z,101463.69
2023-02-26T09:30:20.215Z,101463.50
2023-02-26T09:32:47.288Z,101470.34
2023-02-26T09:35:14.319Z,101469.84
2023-02-26T09:37:41.371Z,101480.47
2023-02-26T09:40:22.380Z,101487.25
2023-02-26T09:43:35.515Z,101492.06
2023-02-26T09:46:41.887Z,101494.47
2023-02-26T09:49:47.844Z,101497.53
2023-02-26T09:52:41.136Z,101490.97
2023-02-26T09:55:38.766Z,101508.22
2023-02-26T09:58:20.808Z,101498.75
2023-02-26T10:01:34.613Z,101518.13
2023-02-26T10:04:25.779Z,101526.13
2023-02-26T10:07:24.134Z,101510.91
2023-02-26T10:10:21.188Z,101518.41
2023-02-26T10:12:51.313Z,101524.03
2023-02-26T10:15:37.800Z,101522.44
2023-02-26T10:18:17.388Z,101525.59
2023-02-26T10:20:56.933Z,101525.03
2023-02-26T10:23:43.778Z,101535.03
2023-02-26T10:26:23.971Z,101531.38
2023-02-26T10:29:22.856Z,101539.06
2023-02-26T10:32:04.269Z,101540.34
2023-02-26T10:34:37.177Z,101544.94
2023-02-26T10:37:20.368Z,101548.75
2023-02-26T10:40:14.450Z,101554.16
2023-02-26T10:42:46.865Z,101528.00
2023-02-26T10:45:43.079Z,101545.69
2023-02-26T10:48:28.321Z,101556.25
2023-02-26T10:51:01.270Z,101549.06
2023-02-26T10:53:31.294Z,101558.03
2023-02-26T10:56:32.184Z,101555.78
2023-02-26T10:59:00.131Z,101552.97
2023-02-26T11:01:30.919Z,101561.59
2023-02-26T11:04:04.803Z,101552.34
2023-02-26T11:06:38.663Z,101556.66
2023-02-26T11:09:18.090Z,101557.97
2023-02-26T11:12:02.248Z,101558.44
2023-02-26T11:14:30.816Z,101564.97
2023-02-26T11:17:02.455Z,101568.34
2023-02-26T11:19:35.130Z,101567.28
2023-02-26T11:22:04.399Z,101568.97
2023-02-26T11:24:37.893Z,101565.47
2023-02-26T11:27:12.959Z,101576.22
2023-02-26T11:29:43.619Z,101578.00
2023-02-26T11:32:20.716Z,101580.06
2023-02-26T11:34:51.163Z,101584.31
2023-02-26T11:37:22.813Z,101593.75
2023-02-26T11:40:07.088Z,101605.66
2023-02-26T11:42:41.133Z,101605.13
2023-02-26T11:45:13.239Z,101608.91
2023-02-26T11:47:40.244Z,101594.63
2023-02-26T11:50:25.905Z,101601.00
2023-02-26T11:53:05.057Z,101604.06
2023-02-26T11:55:44.462Z,101584.25
2023-02-26T11:58:23.809Z,101599.09
2023-02-26T12:00:55.307Z,101599.69
2023-02-26T12:03:28.673Z,101601.19
2023-02-26T12:05:57.915Z,101605.97
2023-02-26T12:08:39.183Z,101592.81
2023-02-26T12:11:32.764Z,101593.63
2023-02-26T12:14:21.898Z,101599.97
2023-02-26T12:17:35.402Z,101588.25
2023-02-26T12:20:21.449Z,101605.72
2023-02-26T12:23:32.805Z,101614.94
2023-02-26T12:26:22.335Z,101608.56
2023-02-26T12:29:23.987Z,101621.53
2023-02-26T12:32:17.967Z,101620.19
2023-02-26T12:35:20.912Z,101619.63
2023-02-26T12:38:21.526Z,101627.34
2023-02-26T12:41:20.455Z,101622.81
2023-02-26T12:43:54.690Z,101612.06
2023-02-26T12:46:36.172Z,101610.38
2023-02-26T12:49:41.030Z,101622.75
2023-02-26T12:52:17.890Z,101623.38
2023-02-26T12:55:10.153Z,101635.13
2023-02-26T12:58:27.217Z,101632.09
2023-02-26T13:01:16.887Z,101636.09
2023-02-26T13:04:28.221Z,101632.38
2023-02-26T13:07:11.627Z,101634.06
2023-02-26T13:10:42.193Z,101634.22
2023-02-26T13:13:30.292Z,101625.56
2023-02-26T13:16:35.733Z,101629.97
2023-02-26T13:19:43.303Z,101634.81
2023-02-26T13:22:32.888Z,101638.81
2023-02-26T13:25:21.687Z,101641.44
2023-02-26T13:27:52.231Z,101632.53
2023-02-26T13:30:36.505Z,101649.84
2023-02-26T13:33:04.388Z,101653.91
2023-02-26T13:35:38.799Z,101658.16
2023-02-26T13:38:20.557Z,101667.41
2023-02-26T13:41:56.703Z,101673.31
2023-02-26T13:45:16.483Z,101662.25
2023-02-26T13:48:20.937Z,101651.41
2023-02-26T13:51:08.809Z,101662.19
2023-02-26T13:53:41.756Z,101674.41
2023-02-26T13:56:42.394Z,101665.19
2023-02-26T13:59:12.321Z,101670.16
2023-02-26T14:01:56.645Z,101661.78
2023-02-26T14:04:30.169Z,101665.56
2023-02-26T14:07:16.823Z,101683.38
2023-02-26T14:10:15.687Z,101682.13
2023-02-26T14:12:43.932Z,101686.81
2023-02-26T14:15:13.750Z,101685.72
2023-02-26T14:17:50.097Z,101689.03
2023-02-26T14:20:22.969Z,101686.44
2023-02-26T14:23:09.552Z,101696.88
2023-02-26T14:25:47.776Z,101696.72
2023-02-26T14:28:43.065Z,101694.22
2023-02-26T14:31:22.556Z,101693.84
2023-02-26T14:34:14.549Z,101708.31
2023-02-26T14:37:01.409Z,101709.88
2023-02-26T14:39:43.832Z,101708.63
2023-02-26T14:42:18.440Z,101709.06
2023-02-26T14:44:53.569Z,101717.94
2023-02-26T14:47:21.648Z,101724.84
2023-02-26T14:49:49.993Z,101714.78
2023-02-26T14:52:40.075Z,101729.25
2023-02-26T14:55:45.719Z,101724.63
2023-02-26T14:58:26.475Z,101724.94
2023-02-26T15:01:21.691Z,101732.97
2023-02-26T15:04:09.982Z,101726.88
2023-02-26T15:06:40.030Z,101735.34
2023-02-26T15:09:34.242Z,101730.13
2023-02-26T15:12:10.288Z,101722.25
2023-02-26T15:15:14.286Z,101733.56
2023-02-26T15:17:59.215Z,101743.00
2023-02-26T15:20:46.330Z,101734.69
2023-02-26T15:23:38.985Z,101731.88
2023-02-26T15:26:09.286Z,101728.63
2023-02-26T15:28:42.045Z,101727.66
2023-02-26T15:31:13.540Z,101747.88
2023-02-26T15:33:41.240Z,101731.41
2023-02-26T15:36:14.773Z,101728.47
2023-02-26T15:38:58.522Z,101746.47
2023-02-26T15:41:28.882Z,101750.75
2023-02-26T15:44:03.690Z,101749.03
2023-02-26T15:46:35.998Z,101750.84
2023-02-26T15:49:15.850Z,101754.69
2023-02-26T15:51:44.928Z,101748.63
2023-02-26T15:54:20.105Z,101762.69
2023-02-26T15:56:48.058Z,101764.16
2023-02-26T15:59:33.841Z,101771.00
2023-02-26T16:02:03.122Z,101766.47
2023-02-26T16:04:30.067Z,101770.56
2023-02-26T16:06:58.288Z,101758.63
2023-02-26T16:09:35.652Z,101765.13
2023-02-26T16:12:22.019Z,101777.72
2023-02-26T16:15:01.146Z,101776.00
2023-02-26T16:17:40.416Z,101763.09
2023-02-26T16:20:17.906Z,101775.75
2023-02-26T16:22:56.567Z,101784.69
2023-02-26T16:25:38.373Z,101766.91
2023-02-26T16:28:16.941Z,101787.88
2023-02-26T16:30:49.203Z,101796.59
2023-02-26T16:33:18.294Z,101798.84
2023-02-26T16:35:54.574Z,101795.78
2023-02-26T16:38:28.857Z,101804.97
2023-02-26T16:41:06.486Z,101802.66
2023-02-26T16:43:50.245Z,101814.28
2023-02-26T16:46:45.290Z,101821.84
2023-02-26T16:49:22.565Z,101821.19
2023-02-26T16:51:51.921Z,101816.41
2023-02-26T16:54:27.340Z,101832.78
2023-02-26T16:57:00.717Z,101848.34
2023-02-26T16:59:43.391Z,101843.97
2023-02-26T17:02:23.154Z,101842.56
2023-02-26T17:04:59.470Z,101847.47
2023-02-26T17:07:36.413Z,101859.31
2023-02-26T17:10:29.815Z,101862.03
2023-02-26T17:13:14.017Z,101862.25
2023-02-26T17:15:41.579Z,101856.06
2023-02-26T17:18:08.796Z,101856.56
2023-02-26T17:20:37.424Z,101870.34
2023-02-26T17:23:08.894Z,101879.31
2023-02-26T17:25:43.726Z,101871.41
2023-02-26T17:28:18.176Z,101881.34
2023-02-26T17:30:45.790Z,101878.34
2023-02-26T17:33:14.520Z,101886.97
2023-02-26T17:35:42.592Z,101888.13
2023-02-26T17:38:15.482Z,101893.44
2023-02-26T17:40:47.473Z,101897.56
2023-02-26T17:43:14.645Z,101900.91
2023-02-26T17:45:42.144Z,101904.88
2023-02-26T17:48:11.339Z,101893.25
2023-02-26T17:50:54.811Z,101897.41
2023-02-26T17:53:27.269Z,101910.97
2023-02-26T17:55:56.384Z,101899.34
2023-02-26T17:58:34.463Z,101909.78
2023-02-26T18:01:03.961Z,101906.47
2023-02-26T18:03:31.201Z,101908.81
2023-02-26T18:05:58.532Z,101909.81
2023-02-26T18:08:31.609Z,101909.50
2023-02-26T18:11:00.495Z,101918.16
2023-02-26T18:13:29.128Z,101916.34
2023-02-26T18:15:58.104Z,101920.84
2023-02-26T18:18:26.514Z,101930.81
2023-02-26T18:20:54.779Z,101925.84
2023-02-26T18:23:22.309Z,101927.69
2023-02-26T18:25:52.948Z,101942.94
2023-02-26T18:28:26.673Z,101931.66
2023-02-26T18:30:55.578Z,101932.66
2023-02-26T18:33:23.842Z,101942.06
2023-02-26T18:35:55.884Z,101943.72
2023-02-26T18:38:27.827Z,101938.25
2023-02-26T18:40:56.079Z,101943.38
2023-02-26T18:43:23.772Z,101942.38
2023-02-26T18:45:52.584Z,101953.63
2023-02-26T18:48:21.641Z,101949.16
2023-02-26T18:50:49.917Z,101957.72
2023-02-26T18:53:17.594Z,101952.59
2023-02-26T18:55:45.129Z,101967.13
2023-02-26T18:58:13.121Z,101968.56
2023-02-26T19:00:41.667Z,101978.94
2023-02-26T19:03:09.247Z,101970.66
2023-02-26T19:05:37.143Z,101978.25
2023-02-26T19:08:05.712Z,101969.63
2023-02-26T19:10:34.294Z,101974.53
2023-02-26T19:13:01.796Z,101981.13
2023-02-26T19:15:29.090Z,101975.13
2023-02-26T19:17:56.329Z,101989.50
2023-02-26T19:20:23.358Z,101996.91
2023-02-26T19:22:50.460Z,102001.84
2023-02-26T19:25:23.589Z,101999.81
2023-02-26T19:27:53.667Z,101996.00
2023-02-26T19:30:23.012Z,101997.13
2023-02-26T19:32:51.861Z,101996.75
2023-02-26T19:35:19.642Z,101991.13
2023-02-26T19:37:47.304Z,102008.06
2023-02-26T19:40:16.770Z,102000.75
2023-02-26T19:42:44.350Z,102007.03
2023-02-26T19:45:14.045Z,101996.25
2023-02-26T19:47:41.280Z,102001.84
2023-02-26T19:50:11.262Z,102002.31
2023-02-26T19:52:38.463Z,102012.84
2023-02-26T19:55:07.341Z,102004.56
2023-02-26T19:57:34.789Z,102000.44
2023-02-26T20:00:03.222Z,102007.16
2023-02-26T20:02:39.545Z,102016.88
2023-02-26T20:05:11.425Z,102012.19
2023-02-26T20:07:38.402Z,102018.63
2023-02-26T20:10:06.271Z,102020.06
2023-02-26T20:12:33.282Z,102021.03
2023-02-26T20:15:00.436Z,102035.22
2023-02-26T20:17:27.605Z,102046.75
2023-02-26T20:19:54.634Z,102041.91
2023-02-26T20:22:24.523Z,102050.97
2023-02-26T20:24:52.476Z,102055.41
2023-02-26T20:27:20.489Z,102052.09
2023-02-26T20:29:47.569Z,102048.91
2023-02-26T20:32:14.567Z,102054.50
2023-02-26T20:34:41.657Z,102063.25
2023-02-26T20:37:08.764Z,102055.47
2023-02-26T20:39:36.076Z,102065.34
2023-02-26T20:42:05.383Z,102074.09
2023-02-26T20:44:33.000Z,102072.88
2023-02-26T20:47:02.560Z,102070.25
2023-02-26T20:49:30.836Z,102073.03
2023-02-26T20:51:57.870Z,102068.88
2023-02-26T20:54:24.932Z,102077.63
2023-02-26T20:56:52.158Z,102069.84
2023-02-26T20:59:19.819Z,102075.13
2023-02-26T21:01:48.477Z,102086.22
2023-02-26T21:04:15.482Z,102077.31
2023-02-26T21:06:42.572Z,102077.47
2023-02-26T21:09:11.138Z,102081.19
2023-02-26T21:11:39.303Z,102086.16
2023-02-26T21:14:08.883Z,102081.56
2023-02-26T21:16:37.498Z,102091.53
2023-02-26T21:19:04.757Z,102089.41
2023-02-26T21:21:31.915Z,102094.25
2023-02-26T21:23:59.160Z,102098.38
2023-02-26T21:26:27.542Z,102104.22
2023-02-26T21:28:54.705Z,102103.91
2023-02-26T21:31:21.966Z,102111.66
2023-02-26T21:33:49.370Z,102100.97
2023-02-26T21:36:16.750Z,102109.56
2023-02-26T21:38:43.909Z,102106.94
2023-02-26T21:41:11.037Z,102116.19
2023-02-26T21:43:38.013Z,102115.38
2023-02-26T21:46:05.474Z,102116.59
2023-02-26T21:48:32.505Z,102125.72
2023-02-26T21:50:59.768Z,102113.72
2023-02-26T21:53:27.764Z,102118.69
2023-02-26T21:55:55.592Z,102126.16
2023-02-26T21:58:23.162Z,102129.88
2023-02-26T22:00:50.247Z,102120.53
2023-02-26T22:03:17.344Z,102121.91
2023-02-26T22:05:44.400Z,102126.25
2023-02-26T22:08:11.459Z,102123.16
2023-02-26T22:10:38.456Z,102131.47
2023-02-26T22:13:05.433Z,102124.88
2023-02-26T22:15:32.515Z,102136.66
2023-02-26T22:17:59.531Z,102136.34
2023-02-26T22:20:26.951Z,102139.34
2023-02-26T22:22:54.272Z,102135.56
2023-02-26T22:25:21.474Z,102129.81
2023-02-26T22:27:48.714Z,102129.22
2023-02-26T22:30:16.121Z,102132.22
2023-02-26T22:32:43.974Z,102135.53
2023-02-26T22:35:13.784Z,102137.56
2023-02-26T22:37:42.416Z,102139.56
2023-02-26T22:40:12.698Z,102139.41
2023-02-26T22:42:44.330Z,102160.28
2023-02-26T22:45:13.369Z,102147.72
2023-02-26T22:47:40.429Z,102149.91
2023-02-26T22:50:07.715Z,102154.91
2023-02-26T22:52:34.674Z,102152.09
2023-02-26T22:55:01.577Z,102157.25
2023-02-26T22:57:28.558Z,102155.09
2023-02-26T22:59:55.633Z,102147.19
2023-02-26T23:02:22.620Z,102155.31
2023-02-26T23:04:49.515Z,102156.28
2023-02-26T23:07:17.151Z,102164.44
2023-02-26T23:09:44.256Z,102162.63
2023-02-26T23:12:11.613Z,102169.94
2023-02-26T23:14:38.684Z,102163.66
2023-02-26T23:17:05.709Z,102164.16
2023-02-26T23:19:32.575Z,102158.72
2023-02-26T23:21:59.578Z,102157.22
2023-02-26T23:24:26.458Z,102165.19
2023-02-26T23:26:53.507Z,102137.50
2023-02-26T23:29:20.596Z,102154.41
2023-02-26T23:31:47.679Z,102159.69
2023-02-26T23:34:14.848Z,102156.38
2023-02-26T23:36:42.381Z,102155.88
2023-02-26T23:39:09.360Z,102162.47
2023-02-26T23:41:36.458Z,102156.81
2023-02-26T23:44:03.856Z,102162.22
2023-02-26T23:46:31.036Z,102157.56
2023-02-26T23:48:58.282Z,102149.84
2023-02-26T23:51:25.741Z,102161.88
2023-02-26T23:53:52.885Z,102160.53
2023-02-26T23:56:19.914Z,102152.00
2023-02-26T23:58:47.069Z,102167.50
